sensor_id;sensor_type;location;lat;lon;timestamp;P1;durP1;ratioP1;P2;durP2;ratioP2
38513;SDS011;24282;48.400;10.808;2023-08-20T00:01:32;4.00;;;2.10;;
38513;SDS011;24282;48.400;10.808;2023-08-20T00:03:58;4.68;;;2.25;;
38513;SDS011;24282;48.400;10.808;2023-08-20T00:06:24;3.75;;;1.95;;
38513;SDS011;24282;48.400;10.808;2023-08-20T00:08:50;5.13;;;2.53;;
38513;SDS011;24282;48.400;10.808;2023-08-20T00:11:16;2.92;;;2.38;;
38513;SDS011;24282;48.400;10.808;2023-08-20T00:13:42;3.92;;;2.30;;
38513;SDS011;24282;48.400;10.808;2023-08-20T00:16:08;4.22;;;2.30;;
38513;SDS011;24282;48.400;10.808;2023-08-20T00:18:35;3.13;;;2.33;;
38513;SDS011;24282;48.400;10.808;2023-08-20T00:21:01;3.60;;;2.42;;
38513;SDS011;24282;48.400;10.808;2023-08-20T00:23:27;2.90;;;2.10;;
38513;SDS011;24282;48.400;10.808;2023-08-20T00:25:53;4.40;;;2.60;;
38513;SDS011;24282;48.400;10.808;2023-08-20T00:28:20;3.40;;;2.50;;
38513;SDS011;24282;48.400;10.808;2023-08-20T00:30:46;3.47;;;2.42;;
38513;SDS011;24282;48.400;10.808;2023-08-20T00:33:12;3.38;;;2.40;;
38513;SDS011;24282;48.400;10.808;2023-08-20T00:35:38;2.63;;;2.20;;
38513;SDS011;24282;48.400;10.808;2023-08-20T00:38:04;4.40;;;2.85;;
38513;SDS011;24282;48.400;10.808;2023-08-20T00:40:30;5.00;;;2.78;;
38513;SDS011;24282;48.400;10.808;2023-08-20T00:42:57;3.80;;;2.50;;
38513;SDS011;24282;48.400;10.808;2023-08-20T00:45:23;3.50;;;2.38;;
38513;SDS011;24282;48.400;10.808;2023-08-20T00:47:50;3.50;;;2.67;;
38513;SDS011;24282;48.400;10.808;2023-08-20T00:50:16;3.58;;;2.30;;
38513;SDS011;24282;48.400;10.808;2023-08-20T00:52:43;2.85;;;2.33;;
38513;SDS011;24282;48.400;10.808;2023-08-20T00:55:10;6.57;;;2.70;;
38513;SDS011;24282;48.400;10.808;2023-08-20T00:57:38;4.03;;;2.88;;
38513;SDS011;24282;48.400;10.808;2023-08-20T01:00:05;4.50;;;2.65;;
38513;SDS011;24282;48.400;10.808;2023-08-20T01:02:36;5.55;;;2.92;;
38513;SDS011;24282;48.400;10.808;2023-08-20T01:05:04;4.55;;;2.38;;
38513;SDS011;24282;48.400;10.808;2023-08-20T01:07:41;3.97;;;2.60;;
38513;SDS011;24282;48.400;10.808;2023-08-20T01:11:03;3.80;;;2.40;;
38513;SDS011;24282;48.400;10.808;2023-08-20T01:13:25;2.90;;;2.28;;
38513;SDS011;24282;48.400;10.808;2023-08-20T01:15:51;4.55;;;2.55;;
38513;SDS011;24282;48.400;10.808;2023-08-20T01:18:17;3.28;;;2.38;;
38513;SDS011;24282;48.400;10.808;2023-08-20T01:20:47;3.55;;;2.25;;
38513;SDS011;24282;48.400;10.808;2023-08-20T01:28:53;3.10;;;2.42;;
38513;SDS011;24282;48.400;10.808;2023-08-20T01:31:20;4.72;;;2.63;;
38513;SDS011;24282;48.400;10.808;2023-08-20T01:33:46;5.78;;;3.00;;
38513;SDS011;24282;48.400;10.808;2023-08-20T01:36:12;4.03;;;3.20;;
38513;SDS011;24282;48.400;10.808;2023-08-20T01:38:40;3.47;;;2.70;;
38513;SDS011;24282;48.400;10.808;2023-08-20T01:41:06;3.78;;;2.83;;
38513;SDS011;24282;48.400;10.808;2023-08-20T01:43:32;4.90;;;2.95;;
38513;SDS011;24282;48.400;10.808;2023-08-20T01:45:57;3.55;;;2.40;;
38513;SDS011;24282;48.400;10.808;2023-08-20T01:48:24;3.90;;;2.70;;
38513;SDS011;24282;48.400;10.808;2023-08-20T01:50:50;3.38;;;2.50;;
38513;SDS011;24282;48.400;10.808;2023-08-20T01:53:16;4.82;;;2.88;;
38513;SDS011;24282;48.400;10.808;2023-08-20T01:55:42;3.85;;;2.72;;
38513;SDS011;24282;48.400;10.808;2023-08-20T01:58:07;6.47;;;2.83;;
38513;SDS011;24282;48.400;10.808;2023-08-20T02:00:33;5.70;;;3.10;;
38513;SDS011;24282;48.400;10.808;2023-08-20T02:02:59;4.43;;;2.95;;
38513;SDS011;24282;48.400;10.808;2023-08-20T02:05:25;3.92;;;2.72;;
38513;SDS011;24282;48.400;10.808;2023-08-20T02:07:51;4.00;;;2.40;;
38513;SDS011;24282;48.400;10.808;2023-08-20T02:10:17;3.72;;;2.70;;
38513;SDS011;24282;48.400;10.808;2023-08-20T02:12:43;3.97;;;2.80;;
38513;SDS011;24282;48.400;10.808;2023-08-20T02:15:08;4.78;;;2.80;;
38513;SDS011;24282;48.400;10.808;2023-08-20T02:17:36;3.85;;;2.70;;
38513;SDS011;24282;48.400;10.808;2023-08-20T02:20:02;4.45;;;2.75;;
38513;SDS011;24282;48.400;10.808;2023-08-20T02:22:33;8.70;;;2.72;;
38513;SDS011;24282;48.400;10.808;2023-08-20T02:24:59;4.47;;;2.63;;
38513;SDS011;24282;48.400;10.808;2023-08-20T02:27:25;3.90;;;2.88;;
38513;SDS011;24282;48.400;10.808;2023-08-20T02:29:51;4.63;;;2.90;;
38513;SDS011;24282;48.400;10.808;2023-08-20T02:32:16;2.50;;;2.30;;
38513;SDS011;24282;48.400;10.808;2023-08-20T02:34:43;3.58;;;2.60;;
38513;SDS011;24282;48.400;10.808;2023-08-20T02:37:08;4.75;;;2.72;;
38513;SDS011;24282;48.400;10.808;2023-08-20T02:39:34;3.40;;;2.47;;
38513;SDS011;24282;48.400;10.808;2023-08-20T02:42:00;5.07;;;3.13;;
38513;SDS011;24282;48.400;10.808;2023-08-20T02:44:26;5.13;;;2.67;;
38513;SDS011;24282;48.400;10.808;2023-08-20T02:46:53;3.25;;;2.47;;
38513;SDS011;24282;48.400;10.808;2023-08-20T02:49:19;3.30;;;2.45;;
38513;SDS011;24282;48.400;10.808;2023-08-20T02:51:44;2.97;;;2.50;;
38513;SDS011;24282;48.400;10.808;2023-08-20T02:54:10;2.85;;;2.30;;
38513;SDS011;24282;48.400;10.808;2023-08-20T02:56:36;5.22;;;2.65;;
38513;SDS011;24282;48.400;10.808;2023-08-20T02:59:02;3.90;;;2.50;;
38513;SDS011;24282;48.400;10.808;2023-08-20T03:01:28;5.25;;;2.55;;
38513;SDS011;24282;48.400;10.808;2023-08-20T03:03:55;4.28;;;2.30;;
38513;SDS011;24282;48.400;10.808;2023-08-20T03:06:20;3.63;;;2.30;;
38513;SDS011;24282;48.400;10.808;2023-08-20T03:08:46;3.55;;;2.28;;
38513;SDS011;24282;48.400;10.808;2023-08-20T03:11:12;3.58;;;2.80;;
38513;SDS011;24282;48.400;10.808;2023-08-20T03:13:38;3.85;;;2.58;;
38513;SDS011;24282;48.400;10.808;2023-08-20T03:16:04;3.63;;;2.67;;
38513;SDS011;24282;48.400;10.808;2023-08-20T03:18:29;3.50;;;2.47;;
38513;SDS011;24282;48.400;10.808;2023-08-20T03:20:56;3.50;;;2.50;;
38513;SDS011;24282;48.400;10.808;2023-08-20T03:23:22;3.17;;;2.50;;
38513;SDS011;24282;48.400;10.808;2023-08-20T03:25:49;5.88;;;2.60;;
38513;SDS011;24282;48.400;10.808;2023-08-20T03:28:15;3.25;;;2.15;;
38513;SDS011;24282;48.400;10.808;2023-08-20T03:30:42;3.00;;;2.42;;
38513;SDS011;24282;48.400;10.808;2023-08-20T03:33:11;4.40;;;2.10;;
38513;SDS011;24282;48.400;10.808;2023-08-20T03:35:38;3.83;;;2.35;;
38513;SDS011;24282;48.400;10.808;2023-08-20T03:38:04;2.90;;;1.90;;
38513;SDS011;24282;48.400;10.808;2023-08-20T03:40:30;2.65;;;2.00;;
38513;SDS011;24282;48.400;10.808;2023-08-20T03:42:56;3.13;;;2.45;;
38513;SDS011;24282;48.400;10.808;2023-08-20T03:45:21;3.10;;;2.10;;
38513;SDS011;24282;48.400;10.808;2023-08-20T03:47:47;4.20;;;2.30;;
38513;SDS011;24282;48.400;10.808;2023-08-20T03:50:13;4.20;;;2.65;;
38513;SDS011;24282;48.400;10.808;2023-08-20T03:52:39;3.70;;;2.40;;
38513;SDS011;24282;48.400;10.808;2023-08-20T03:55:05;3.13;;;2.17;;
38513;SDS011;24282;48.400;10.808;2023-08-20T03:57:32;2.90;;;2.20;;
38513;SDS011;24282;48.400;10.808;2023-08-20T03:59:57;6.53;;;2.35;;
38513;SDS011;24282;48.400;10.808;2023-08-20T04:02:23;3.75;;;2.42;;
38513;SDS011;24282;48.400;10.808;2023-08-20T04:04:49;2.58;;;2.05;;
38513;SDS011;24282;48.400;10.808;2023-08-20T04:07:15;3.30;;;2.38;;
38513;SDS011;24282;48.400;10.808;2023-08-20T04:09:41;5.30;;;2.45;;
38513;SDS011;24282;48.400;10.808;2023-08-20T04:12:07;4.32;;;2.38;;
38513;SDS011;24282;48.400;10.808;2023-08-20T04:14:36;3.42;;;2.30;;
38513;SDS011;24282;48.400;10.808;2023-08-20T04:17:01;4.82;;;2.40;;
38513;SDS011;24282;48.400;10.808;2023-08-20T04:19:27;3.90;;;2.70;;
38513;SDS011;24282;48.400;10.808;2023-08-20T04:21:53;4.00;;;2.58;;
38513;SDS011;24282;48.400;10.808;2023-08-20T04:24:19;4.60;;;2.50;;
38513;SDS011;24282;48.400;10.808;2023-08-20T04:26:45;3.47;;;2.30;;
38513;SDS011;24282;48.400;10.808;2023-08-20T04:29:13;3.83;;;2.60;;
38513;SDS011;24282;48.400;10.808;2023-08-20T04:31:39;3.05;;;2.10;;
38513;SDS011;24282;48.400;10.808;2023-08-20T04:34:08;2.75;;;2.20;;
38513;SDS011;24282;48.400;10.808;2023-08-20T04:36:46;3.72;;;2.17;;
38513;SDS011;24282;48.400;10.808;2023-08-20T04:39:12;3.63;;;2.17;;
38513;SDS011;24282;48.400;10.808;2023-08-20T04:41:43;4.32;;;2.63;;
38513;SDS011;24282;48.400;10.808;2023-08-20T04:44:12;3.88;;;2.60;;
38513;SDS011;24282;48.400;10.808;2023-08-20T04:46:38;4.90;;;3.00;;
38513;SDS011;24282;48.400;10.808;2023-08-20T04:49:04;3.65;;;2.50;;
38513;SDS011;24282;48.400;10.808;2023-08-20T04:51:31;4.47;;;2.70;;
38513;SDS011;24282;48.400;10.808;2023-08-20T04:53:56;6.20;;;3.03;;
38513;SDS011;24282;48.400;10.808;2023-08-20T04:56:22;4.15;;;3.00;;
38513;SDS011;24282;48.400;10.808;2023-08-20T04:58:48;4.88;;;2.67;;
38513;SDS011;24282;48.400;10.808;2023-08-20T05:01:30;4.88;;;2.40;;
38513;SDS011;24282;48.400;10.808;2023-08-20T05:03:55;3.55;;;2.35;;
38513;SDS011;24282;48.400;10.808;2023-08-20T05:06:21;3.60;;;2.42;;
38513;SDS011;24282;48.400;10.808;2023-08-20T05:08:47;2.60;;;2.30;;
38513;SDS011;24282;48.400;10.808;2023-08-20T05:11:13;3.05;;;2.22;;
38513;SDS011;24282;48.400;10.808;2023-08-20T05:13:39;3.38;;;2.75;;
38513;SDS011;24282;48.400;10.808;2023-08-20T05:16:05;5.07;;;2.90;;
38513;SDS011;24282;48.400;10.808;2023-08-20T05:18:30;6.07;;;3.17;;
38513;SDS011;24282;48.400;10.808;2023-08-20T05:20:56;3.72;;;2.97;;
38513;SDS011;24282;48.400;10.808;2023-08-20T05:23:22;4.13;;;2.30;;
38513;SDS011;24282;48.400;10.808;2023-08-20T05:25:48;4.88;;;2.92;;
38513;SDS011;24282;48.400;10.808;2023-08-20T05:28:14;4.10;;;2.83;;
38513;SDS011;24282;48.400;10.808;2023-08-20T05:30:40;3.78;;;2.85;;
38513;SDS011;24282;48.400;10.808;2023-08-20T05:33:05;4.25;;;3.03;;
38513;SDS011;24282;48.400;10.808;2023-08-20T05:35:35;3.58;;;2.97;;
38513;SDS011;24282;48.400;10.808;2023-08-20T05:38:01;5.88;;;3.42;;
38513;SDS011;24282;48.400;10.808;2023-08-20T05:40:27;4.13;;;3.45;;
38513;SDS011;24282;48.400;10.808;2023-08-20T05:42:53;4.90;;;3.28;;
38513;SDS011;24282;48.400;10.808;2023-08-20T05:45:19;3.97;;;2.78;;
38513;SDS011;24282;48.400;10.808;2023-08-20T05:47:45;4.72;;;3.42;;
38513;SDS011;24282;48.400;10.808;2023-08-20T05:50:11;3.83;;;3.42;;
38513;SDS011;24282;48.400;10.808;2023-08-20T05:52:37;5.72;;;3.85;;
38513;SDS011;24282;48.400;10.808;2023-08-20T05:55:03;5.25;;;3.38;;
38513;SDS011;24282;48.400;10.808;2023-08-20T05:57:29;4.22;;;3.50;;
38513;SDS011;24282;48.400;10.808;2023-08-20T05:59:55;4.75;;;3.67;;
38513;SDS011;24282;48.400;10.808;2023-08-20T06:02:21;4.32;;;3.55;;
38513;SDS011;24282;48.400;10.808;2023-08-20T06:04:48;7.10;;;4.03;;
38513;SDS011;24282;48.400;10.808;2023-08-20T06:07:16;4.10;;;3.50;;
38513;SDS011;24282;48.400;10.808;2023-08-20T06:09:41;5.28;;;3.85;;
38513;SDS011;24282;48.400;10.808;2023-08-20T06:12:07;5.10;;;3.22;;
38513;SDS011;24282;48.400;10.808;2023-08-20T06:14:33;6.35;;;4.03;;
38513;SDS011;24282;48.400;10.808;2023-08-20T06:16:59;6.15;;;3.90;;
38513;SDS011;24282;48.400;10.808;2023-08-20T06:19:25;4.82;;;3.92;;
38513;SDS011;24282;48.400;10.808;2023-08-20T06:21:51;5.22;;;3.53;;
38513;SDS011;24282;48.400;10.808;2023-08-20T06:24:16;5.28;;;3.47;;
38513;SDS011;24282;48.400;10.808;2023-08-20T06:26:42;6.60;;;4.13;;
38513;SDS011;24282;48.400;10.808;2023-08-20T06:29:09;4.63;;;3.65;;
38513;SDS011;24282;48.400;10.808;2023-08-20T06:31:35;5.80;;;3.90;;
38513;SDS011;24282;48.400;10.808;2023-08-20T06:34:00;4.80;;;3.90;;
38513;SDS011;24282;48.400;10.808;2023-08-20T06:36:26;5.32;;;4.07;;
38513;SDS011;24282;48.400;10.808;2023-08-20T06:38:52;4.43;;;3.70;;
38513;SDS011;24282;48.400;10.808;2023-08-20T06:41:18;4.90;;;3.55;;
38513;SDS011;24282;48.400;10.808;2023-08-20T06:43:43;5.80;;;4.45;;
38513;SDS011;24282;48.400;10.808;2023-08-20T06:46:09;4.97;;;3.92;;
38513;SDS011;24282;48.400;10.808;2023-08-20T06:48:35;4.20;;;3.60;;
38513;SDS011;24282;48.400;10.808;2023-08-20T06:51:07;6.00;;;4.32;;
38513;SDS011;24282;48.400;10.808;2023-08-20T06:53:36;4.18;;;3.78;;
38513;SDS011;24282;48.400;10.808;2023-08-20T06:56:02;4.18;;;3.67;;
38513;SDS011;24282;48.400;10.808;2023-08-20T06:58:28;5.18;;;4.00;;
38513;SDS011;24282;48.400;10.808;2023-08-20T07:00:54;6.00;;;4.20;;
38513;SDS011;24282;48.400;10.808;2023-08-20T07:03:19;5.03;;;3.88;;
38513;SDS011;24282;48.400;10.808;2023-08-20T07:05:45;5.60;;;4.22;;
38513;SDS011;24282;48.400;10.808;2023-08-20T07:08:11;4.95;;;4.22;;
38513;SDS011;24282;48.400;10.808;2023-08-20T07:10:37;6.97;;;4.22;;
38513;SDS011;24282;48.400;10.808;2023-08-20T07:13:03;5.28;;;3.95;;
38513;SDS011;24282;48.400;10.808;2023-08-20T07:15:29;4.75;;;3.90;;
38513;SDS011;24282;48.400;10.808;2023-08-20T07:17:55;6.03;;;3.70;;
38513;SDS011;24282;48.400;10.808;2023-08-20T07:20:20;5.10;;;4.00;;
38513;SDS011;24282;48.400;10.808;2023-08-20T07:22:46;5.10;;;3.38;;
38513;SDS011;24282;48.400;10.808;2023-08-20T07:25:12;4.43;;;3.90;;
38513;SDS011;24282;48.400;10.808;2023-08-20T07:27:37;5.20;;;3.80;;
38513;SDS011;24282;48.400;10.808;2023-08-20T07:30:03;4.00;;;3.60;;
38513;SDS011;24282;48.400;10.808;2023-08-20T07:32:29;4.78;;;3.75;;
38513;SDS011;24282;48.400;10.808;2023-08-20T07:34:55;6.95;;;3.97;;
38513;SDS011;24282;48.400;10.808;2023-08-20T07:37:21;5.30;;;3.90;;
38513;SDS011;24282;48.400;10.808;2023-08-20T07:39:47;5.38;;;4.13;;
38513;SDS011;24282;48.400;10.808;2023-08-20T07:42:12;4.82;;;3.92;;
38513;SDS011;24282;48.400;10.808;2023-08-20T07:44:38;5.82;;;4.38;;
38513;SDS011;24282;48.400;10.808;2023-08-20T07:47:04;5.35;;;4.30;;
38513;SDS011;24282;48.400;10.808;2023-08-20T07:49:30;5.03;;;3.60;;
38513;SDS011;24282;48.400;10.808;2023-08-20T07:51:56;4.75;;;3.80;;
38513;SDS011;24282;48.400;10.808;2023-08-20T07:54:21;4.47;;;3.60;;
38513;SDS011;24282;48.400;10.808;2023-08-20T07:56:47;7.20;;;3.75;;
38513;SDS011;24282;48.400;10.808;2023-08-20T07:59:13;6.85;;;3.90;;
38513;SDS011;24282;48.400;10.808;2023-08-20T08:01:39;8.13;;;4.72;;
38513;SDS011;24282;48.400;10.808;2023-08-20T08:04:04;5.95;;;4.20;;
38513;SDS011;24282;48.400;10.808;2023-08-20T08:06:30;4.97;;;3.63;;
38513;SDS011;24282;48.400;10.808;2023-08-20T08:08:56;5.93;;;3.92;;
38513;SDS011;24282;48.400;10.808;2023-08-20T08:11:22;5.75;;;3.42;;
38513;SDS011;24282;48.400;10.808;2023-08-20T08:13:47;4.13;;;3.50;;
38513;SDS011;24282;48.400;10.808;2023-08-20T08:16:13;6.03;;;3.90;;
38513;SDS011;24282;48.400;10.808;2023-08-20T08:18:39;7.60;;;4.13;;
38513;SDS011;24282;48.400;10.808;2023-08-20T08:21:05;5.32;;;3.60;;
38513;SDS011;24282;48.400;10.808;2023-08-20T08:23:30;4.18;;;3.40;;
38513;SDS011;24282;48.400;10.808;2023-08-20T08:25:56;3.47;;;3.05;;
38513;SDS011;24282;48.400;10.808;2023-08-20T08:28:22;4.45;;;3.28;;
38513;SDS011;24282;48.400;10.808;2023-08-20T08:30:48;4.65;;;3.10;;
38513;SDS011;24282;48.400;10.808;2023-08-20T08:33:14;5.53;;;3.58;;
38513;SDS011;24282;48.400;10.808;2023-08-20T08:35:40;4.15;;;3.10;;
38513;SDS011;24282;48.400;10.808;2023-08-20T08:38:05;3.85;;;3.17;;
38513;SDS011;24282;48.400;10.808;2023-08-20T08:40:31;3.63;;;3.05;;
38513;SDS011;24282;48.400;10.808;2023-08-20T08:42:58;4.00;;;3.00;;
38513;SDS011;24282;48.400;10.808;2023-08-20T08:45:26;4.65;;;2.88;;
38513;SDS011;24282;48.400;10.808;2023-08-20T08:47:53;4.20;;;3.25;;
38513;SDS011;24282;48.400;10.808;2023-08-20T08:50:20;5.13;;;3.10;;
38513;SDS011;24282;48.400;10.808;2023-08-20T08:52:46;5.90;;;3.17;;
38513;SDS011;24282;48.400;10.808;2023-08-20T08:55:15;5.68;;;2.97;;
38513;SDS011;24282;48.400;10.808;2023-08-20T08:57:41;5.07;;;3.50;;
38513;SDS011;24282;48.400;10.808;2023-08-20T09:00:07;4.55;;;2.88;;
38513;SDS011;24282;48.400;10.808;2023-08-20T09:02:33;4.93;;;3.05;;
38513;SDS011;24282;48.400;10.808;2023-08-20T09:04:59;5.15;;;2.72;;
38513;SDS011;24282;48.400;10.808;2023-08-20T09:07:25;5.63;;;2.70;;
38513;SDS011;24282;48.400;10.808;2023-08-20T09:09:56;4.28;;;3.28;;
38513;SDS011;24282;48.400;10.808;2023-08-20T09:12:24;3.90;;;2.92;;
38513;SDS011;24282;48.400;10.808;2023-08-20T09:14:52;4.40;;;2.40;;
38513;SDS011;24282;48.400;10.808;2023-08-20T09:17:19;3.53;;;2.40;;
38513;SDS011;24282;48.400;10.808;2023-08-20T09:19:46;3.33;;;2.63;;
38513;SDS011;24282;48.400;10.808;2023-08-20T09:22:12;4.93;;;2.42;;
38513;SDS011;24282;48.400;10.808;2023-08-20T09:24:39;4.72;;;2.88;;
38513;SDS011;24282;48.400;10.808;2023-08-20T09:27:07;3.00;;;2.35;;
38513;SDS011;24282;48.400;10.808;2023-08-20T09:29:43;2.40;;;2.00;;
38513;SDS011;24282;48.400;10.808;2023-08-20T09:32:09;3.72;;;2.47;;
38513;SDS011;24282;48.400;10.808;2023-08-20T09:34:40;2.93;;;1.90;;
38513;SDS011;24282;48.400;10.808;2023-08-20T09:37:09;3.53;;;2.55;;
38513;SDS011;24282;48.400;10.808;2023-08-20T09:39:37;2.83;;;2.20;;
38513;SDS011;24282;48.400;10.808;2023-08-20T09:42:03;3.45;;;2.30;;
38513;SDS011;24282;48.400;10.808;2023-08-20T09:44:37;3.60;;;2.53;;
38513;SDS011;24282;48.400;10.808;2023-08-20T09:47:11;3.63;;;2.33;;
38513;SDS011;24282;48.400;10.808;2023-08-20T09:49:42;3.88;;;2.10;;
38513;SDS011;24282;48.400;10.808;2023-08-20T09:52:10;3.88;;;2.45;;
38513;SDS011;24282;48.400;10.808;2023-08-20T09:57:26;2.95;;;2.10;;
38513;SDS011;24282;48.400;10.808;2023-08-20T10:00:03;2.85;;;2.13;;
38513;SDS011;24282;48.400;10.808;2023-08-20T10:02:40;4.85;;;2.28;;
38513;SDS011;24282;48.400;10.808;2023-08-20T10:05:07;3.05;;;2.20;;
38513;SDS011;24282;48.400;10.808;2023-08-20T10:07:35;4.03;;;2.30;;
38513;SDS011;24282;48.400;10.808;2023-08-20T10:10:02;2.92;;;1.92;;
38513;SDS011;24282;48.400;10.808;2023-08-20T10:12:29;2.83;;;2.25;;
38513;SDS011;24282;48.400;10.808;2023-08-20T10:14:56;3.75;;;2.45;;
38513;SDS011;24282;48.400;10.808;2023-08-20T10:17:23;4.72;;;2.92;;
38513;SDS011;24282;48.400;10.808;2023-08-20T10:19:52;4.47;;;3.10;;
38513;SDS011;24282;48.400;10.808;2023-08-20T10:22:19;6.22;;;2.60;;
38513;SDS011;24282;48.400;10.808;2023-08-20T10:24:52;3.13;;;2.38;;
38513;SDS011;24282;48.400;10.808;2023-08-20T10:27:28;2.72;;;2.35;;
38513;SDS011;24282;48.400;10.808;2023-08-20T10:29:58;3.13;;;1.65;;
38513;SDS011;24282;48.400;10.808;2023-08-20T10:32:43;2.50;;;2.10;;
38513;SDS011;24282;48.400;10.808;2023-08-20T10:35:17;3.45;;;2.30;;
38513;SDS011;24282;48.400;10.808;2023-08-20T10:43:26;4.78;;;2.60;;
38513;SDS011;24282;48.400;10.808;2023-08-20T10:48:34;3.60;;;2.50;;
38513;SDS011;24282;48.400;10.808;2023-08-20T10:51:15;4.07;;;2.40;;
38513;SDS011;24282;48.400;10.808;2023-08-20T10:56:42;3.65;;;1.80;;
38513;SDS011;24282;48.400;10.808;2023-08-20T11:02:08;2.92;;;1.70;;
38513;SDS011;24282;48.400;10.808;2023-08-20T11:04:40;3.58;;;1.75;;
38513;SDS011;24282;48.400;10.808;2023-08-20T11:07:06;4.43;;;2.05;;
38513;SDS011;24282;48.400;10.808;2023-08-20T11:09:33;3.00;;;1.80;;
38513;SDS011;24282;48.400;10.808;2023-08-20T11:11:59;2.78;;;1.88;;
38513;SDS011;24282;48.400;10.808;2023-08-20T11:14:24;2.08;;;1.60;;
38513;SDS011;24282;48.400;10.808;2023-08-20T11:16:50;3.30;;;1.85;;
38513;SDS011;24282;48.400;10.808;2023-08-20T11:19:20;3.05;;;2.03;;
38513;SDS011;24282;48.400;10.808;2023-08-20T11:21:47;2.22;;;1.80;;
38513;SDS011;24282;48.400;10.808;2023-08-20T11:24:13;3.17;;;2.10;;
38513;SDS011;24282;48.400;10.808;2023-08-20T11:26:39;3.53;;;2.05;;
38513;SDS011;24282;48.400;10.808;2023-08-20T11:29:06;3.17;;;1.73;;
38513;SDS011;24282;48.400;10.808;2023-08-20T11:31:33;3.78;;;2.15;;
38513;SDS011;24282;48.400;10.808;2023-08-20T11:34:02;2.60;;;1.85;;
38513;SDS011;24282;48.400;10.808;2023-08-20T11:36:28;3.38;;;1.75;;
38513;SDS011;24282;48.400;10.808;2023-08-20T11:38:54;2.55;;;1.80;;
38513;SDS011;24282;48.400;10.808;2023-08-20T11:41:21;3.45;;;1.80;;
38513;SDS011;24282;48.400;10.808;2023-08-20T11:43:47;4.20;;;2.03;;
38513;SDS011;24282;48.400;10.808;2023-08-20T11:46:15;3.40;;;2.00;;
38513;SDS011;24282;48.400;10.808;2023-08-20T11:51:29;3.13;;;1.90;;
38513;SDS011;24282;48.400;10.808;2023-08-20T11:53:57;3.05;;;1.88;;
38513;SDS011;24282;48.400;10.808;2023-08-20T11:56:23;3.72;;;1.73;;
38513;SDS011;24282;48.400;10.808;2023-08-20T11:58:52;3.80;;;2.03;;
38513;SDS011;24282;48.400;10.808;2023-08-20T12:01:18;2.60;;;1.75;;
38513;SDS011;24282;48.400;10.808;2023-08-20T12:03:44;2.80;;;1.67;;
38513;SDS011;24282;48.400;10.808;2023-08-20T12:06:20;2.20;;;1.52;;
38513;SDS011;24282;48.400;10.808;2023-08-20T12:08:47;2.83;;;1.27;;
38513;SDS011;24282;48.400;10.808;2023-08-20T12:11:13;2.97;;;1.75;;
38513;SDS011;24282;48.400;10.808;2023-08-20T12:13:40;2.33;;;1.65;;
38513;SDS011;24282;48.400;10.808;2023-08-20T12:16:06;4.10;;;2.03;;
38513;SDS011;24282;48.400;10.808;2023-08-20T12:18:32;2.10;;;1.70;;
38513;SDS011;24282;48.400;10.808;2023-08-20T12:20:57;2.65;;;1.30;;
38513;SDS011;24282;48.400;10.808;2023-08-20T12:23:23;2.70;;;1.50;;
38513;SDS011;24282;48.400;10.808;2023-08-20T12:25:49;3.45;;;1.80;;
38513;SDS011;24282;48.400;10.808;2023-08-20T12:28:16;3.28;;;2.00;;
38513;SDS011;24282;48.400;10.808;2023-08-20T12:30:42;2.25;;;1.60;;
38513;SDS011;24282;48.400;10.808;2023-08-20T12:33:09;2.83;;;1.50;;
38513;SDS011;24282;48.400;10.808;2023-08-20T12:35:36;2.85;;;1.48;;
38513;SDS011;24282;48.400;10.808;2023-08-20T12:38:02;4.00;;;1.50;;
38513;SDS011;24282;48.400;10.808;2023-08-20T12:40:29;3.03;;;1.48;;
38513;SDS011;24282;48.400;10.808;2023-08-20T12:42:55;3.15;;;1.70;;
38513;SDS011;24282;48.400;10.808;2023-08-20T12:45:20;3.90;;;1.70;;
38513;SDS011;24282;48.400;10.808;2023-08-20T12:47:46;2.45;;;1.85;;
38513;SDS011;24282;48.400;10.808;2023-08-20T12:50:12;4.38;;;2.17;;
38513;SDS011;24282;48.400;10.808;2023-08-20T12:52:39;3.72;;;1.73;;
38513;SDS011;24282;48.400;10.808;2023-08-20T12:55:06;2.63;;;1.73;;
38513;SDS011;24282;48.400;10.808;2023-08-20T12:57:33;1.88;;;1.60;;
38513;SDS011;24282;48.400;10.808;2023-08-20T13:00:01;2.67;;;1.80;;
38513;SDS011;24282;48.400;10.808;2023-08-20T13:02:32;2.72;;;1.77;;
38513;SDS011;24282;48.400;10.808;2023-08-20T13:04:58;2.28;;;1.67;;
38513;SDS011;24282;48.400;10.808;2023-08-20T13:07:24;3.03;;;1.65;;
38513;SDS011;24282;48.400;10.808;2023-08-20T13:09:49;2.72;;;1.60;;
38513;SDS011;24282;48.400;10.808;2023-08-20T13:12:15;2.28;;;1.42;;
38513;SDS011;24282;48.400;10.808;2023-08-20T13:14:44;2.60;;;1.65;;
38513;SDS011;24282;48.400;10.808;2023-08-20T13:17:10;2.00;;;1.40;;
38513;SDS011;24282;48.400;10.808;2023-08-20T13:19:35;3.20;;;1.73;;
38513;SDS011;24282;48.400;10.808;2023-08-20T13:22:02;1.38;;;1.27;;
38513;SDS011;24282;48.400;10.808;2023-08-20T13:24:27;1.50;;;1.35;;
38513;SDS011;24282;48.400;10.808;2023-08-20T13:26:53;4.38;;;1.55;;
38513;SDS011;24282;48.400;10.808;2023-08-20T13:29:19;2.10;;;1.40;;
38513;SDS011;24282;48.400;10.808;2023-08-20T13:31:44;1.33;;;1.13;;
38513;SDS011;24282;48.400;10.808;2023-08-20T13:34:10;1.60;;;1.30;;
38513;SDS011;24282;48.400;10.808;2023-08-20T13:36:36;2.30;;;1.30;;
38513;SDS011;24282;48.400;10.808;2023-08-20T13:39:01;2.85;;;1.50;;
38513;SDS011;24282;48.400;10.808;2023-08-20T13:41:28;1.60;;;1.25;;
38513;SDS011;24282;48.400;10.808;2023-08-20T13:43:53;2.17;;;1.48;;
38513;SDS011;24282;48.400;10.808;2023-08-20T13:46:19;3.00;;;1.58;;
38513;SDS011;24282;48.400;10.808;2023-08-20T13:48:45;2.53;;;1.45;;
38513;SDS011;24282;48.400;10.808;2023-08-20T13:51:11;2.88;;;1.40;;
38513;SDS011;24282;48.400;10.808;2023-08-20T13:53:37;1.92;;;1.45;;
38513;SDS011;24282;48.400;10.808;2023-08-20T13:56:03;3.67;;;1.60;;
38513;SDS011;24282;48.400;10.808;2023-08-20T13:58:28;3.47;;;2.08;;
38513;SDS011;24282;48.400;10.808;2023-08-20T14:00:54;4.20;;;2.75;;
38513;SDS011;24282;48.400;10.808;2023-08-20T14:03:20;4.10;;;2.65;;
38513;SDS011;24282;48.400;10.808;2023-08-20T14:05:45;3.20;;;2.10;;
38513;SDS011;24282;48.400;10.808;2023-08-20T14:08:11;3.53;;;1.60;;
38513;SDS011;24282;48.400;10.808;2023-08-20T14:10:37;2.25;;;1.40;;
38513;SDS011;24282;48.400;10.808;2023-08-20T14:13:02;1.60;;;1.30;;
38513;SDS011;24282;48.400;10.808;2023-08-20T14:15:28;2.67;;;1.30;;
38513;SDS011;24282;48.400;10.808;2023-08-20T14:17:54;2.40;;;1.30;;
38513;SDS011;24282;48.400;10.808;2023-08-20T14:20:20;1.83;;;1.42;;
38513;SDS011;24282;48.400;10.808;2023-08-20T14:22:45;3.75;;;1.33;;
38513;SDS011;24282;48.400;10.808;2023-08-20T14:25:11;1.70;;;1.20;;
38513;SDS011;24282;48.400;10.808;2023-08-20T14:27:37;2.45;;;1.30;;
38513;SDS011;24282;48.400;10.808;2023-08-20T14:30:04;1.83;;;1.20;;
38513;SDS011;24282;48.400;10.808;2023-08-20T14:32:30;1.95;;;1.40;;
38513;SDS011;24282;48.400;10.808;2023-08-20T14:34:56;3.00;;;1.38;;
38513;SDS011;24282;48.400;10.808;2023-08-20T14:37:22;2.63;;;1.27;;
38513;SDS011;24282;48.400;10.808;2023-08-20T14:39:49;3.03;;;1.50;;
38513;SDS011;24282;48.400;10.808;2023-08-20T14:42:14;1.67;;;1.20;;
38513;SDS011;24282;48.400;10.808;2023-08-20T14:44:40;2.65;;;1.85;;
38513;SDS011;24282;48.400;10.808;2023-08-20T14:47:06;2.30;;;1.63;;
38513;SDS011;24282;48.400;10.808;2023-08-20T14:49:32;3.25;;;1.55;;
38513;SDS011;24282;48.400;10.808;2023-08-20T14:51:57;2.17;;;1.48;;
38513;SDS011;24282;48.400;10.808;2023-08-20T14:54:25;2.83;;;1.38;;
38513;SDS011;24282;48.400;10.808;2023-08-20T14:56:50;4.47;;;1.70;;